Rosanna A — ILTL — position and weather

sailwx.info

Track history (hours):
 
Tides and Currents Weather Stations Pressure Air Temp Water Temp Dewpoint Dewpoint Depression Visibility Wind Speed Wind Dir Waves Ship Positions

Rosanna A

Last reported at 2018-Jun-21 16:45 UTC. Time now 2018-Jun-22 13:21 UTC.
Position N 41°13' E 013°34'.

Length 63 m; draft 4.8 m.

Type: Ship. MMSI: 247508000.

Date/timePositionNaut miles runAvg speedWind from/ knotsBaromVisibWave heightAir tempDewpointWater temp
2018-Jun-21 16:45N 41°13' E 013°34'0 0.0
2018-Jun-21 12:48N 41°13' E 013°34'0 0.0
2018-Jun-21 12:09N 41°13' E 013°34'0 0.0
2018-Jun-21 11:57N 41°13' E 013°34'0 0.0
2018-Jun-21 11:30N 41°13' E 013°34'0 0.0
2018-Jun-21 10:57N 41°13' E 013°34'0 0.0
2018-Jun-21 10:30N 41°13' E 013°34'0 0.0
2018-Jun-21 09:57N 41°13' E 013°34'0 0.0
2018-Jun-21 01:15N 41°13' E 013°34'0 0.0
2018-Jun-20 15:27N 41°13' E 013°34'0 0.0
2018-Jun-20 15:00N 41°13' E 013°34'0 0.0
2018-Jun-20 14:27N 41°13' E 013°34'0 0.1
2018-Jun-20 06:24N 41°14' E 013°35'30 1.0
2018-Jun-19 00:30N 40°45' E 013°42'3 6.7
2018-Jun-19 00:00N 40°43' E 013°45'3 6.5
2018-Jun-18 23:30N 40°41' E 013°49'3 6.5
2018-Jun-18 23:00N 40°40' E 013°53'3 6.7
2018-Jun-18 22:30N 40°39' E 013°57'3 6.9
2018-Jun-18 22:00N 40°40' E 014°01'3 6.4
2018-Jun-18 21:30N 40°42' E 014°05'3 6.1
2018-Jun-18 21:00N 40°44' E 014°08'3 6.3
2018-Jun-18 20:30N 40°46' E 014°11'3 6.0
2018-Jun-18 20:00N 40°48' E 014°15'3 5.5
2018-Jun-18 19:30N 40°50' E 014°16'0 0.8
2018-Jun-18 18:58N 40°51' E 014°16'0 0.0
2018-Jun-18 18:28N 40°51' E 014°16'0 0.0
2018-Jun-18 17:58N 40°51' E 014°16'0 0.0
2018-Jun-18 17:25N 40°51' E 014°16'0 0.0
2018-Jun-18 16:58N 40°51' E 014°16'0 0.0
2018-Jun-18 16:28N 40°51' E 014°16'0 0.0
2018-Jun-18 15:58N 40°51' E 014°16'0 0.0
2018-Jun-18 15:28N 40°51' E 014°16'0 0.0
2018-Jun-18 14:58N 40°51' E 014°16'0 0.0
2018-Jun-18 14:28N 40°51' E 014°16'0 0.0
2018-Jun-18 13:58N 40°51' E 014°16'0 0.0
2018-Jun-18 13:25N 40°51' E 014°16'0 0.0
2018-Jun-18 12:58N 40°51' E 014°16'0 0.0
2018-Jun-18 12:22N 40°51' E 014°16'0 0.0
2018-Jun-18 11:58N 40°51' E 014°16'0 0.0
2018-Jun-18 11:25N 40°51' E 014°16'0 0.0
2018-Jun-18 10:58N 40°51' E 014°16'0 0.0
2018-Jun-18 10:28N 40°51' E 014°16'0 0.0
2018-Jun-18 09:58N 40°51' E 014°16'0 0.0
2018-Jun-18 09:28N 40°51' E 014°16'0 0.0
2018-Jun-18 08:58N 40°51' E 014°16'0 0.0
2018-Jun-18 08:28N 40°51' E 014°16'0 0.0
2018-Jun-18 07:58N 40°51' E 014°16'0 0.0
2018-Jun-18 07:28N 40°51' E 014°16'0 0.0
2018-Jun-18 06:58N 40°51' E 014°16'0 0.0
2018-Jun-18 06:28N 40°51' E 014°16'0 0.0
2018-Jun-18 06:00N 40°51' E 014°16'2 4.2
2018-Jun-18 05:30N 40°49' E 014°17'4 7.5
2018-Jun-18 05:00N 40°46' E 014°13'4 7.6
2018-Jun-18 04:30N 40°44' E 014°09'4 7.8
2018-Jun-18 04:00N 40°42' E 014°05'4 7.9
2018-Jun-18 03:30N 40°40' E 014°01'3 6.9
2018-Jun-18 03:00N 40°39' E 013°56'4 7.2
2018-Jun-18 02:30N 40°40' E 013°52'4 7.6
2018-Jun-18 02:00N 40°42' E 013°47'4 7.8
2018-Jun-18 01:29N 40°44' E 013°42'4 7.7
2018-Jun-18 01:00N 40°45' E 013°38'4 7.7
2018-Jun-18 00:30N 40°47' E 013°33'4 7.7
2018-Jun-17 23:55N 40°49' E 013°28'15 7.7
2018-Jun-17 21:56N 40°53' E 013°08'12 0.6
2018-Jun-17 02:31N 40°51' E 013°24'2 6.6
2018-Jun-17 02:16N 40°50' E 013°26'10 6.6
2018-Jun-17 00:46N 40°46' E 013°38'3 6.5
2018-Jun-17 00:14N 40°45' E 013°42'2 6.6
2018-Jun-16 23:59N 40°44' E 013°44'3 6.3
2018-Jun-16 23:29N 40°42' E 013°47'3 6.1
2018-Jun-16 23:00N 40°40' E 013°50'3 5.9
2018-Jun-16 22:30N 40°39' E 013°54'3 6.8
2018-Jun-16 22:00N 40°39' E 013°59'3 6.8
2018-Jun-16 21:30N 40°41' E 014°03'3 6.9
2018-Jun-16 21:00N 40°43' E 014°07'3 6.8
2018-Jun-16 20:30N 40°44' E 014°10'3 6.7
2018-Jun-16 20:00N 40°47' E 014°13'3 6.6
2018-Jun-16 19:30N 40°49' E 014°16'1 2.2
2018-Jun-16 19:00N 40°50' E 014°15'0 0.0
2018-Jun-16 18:30N 40°50' E 014°15'0 0.0
2018-Jun-16 18:00N 40°50' E 014°15'0 0.0
2018-Jun-16 17:30N 40°50' E 014°15'0 0.0
2018-Jun-16 17:00N 40°50' E 014°15'0 0.0
2018-Jun-16 16:30N 40°50' E 014°15'0 0.0
2018-Jun-16 16:00N 40°50' E 014°15'0 0.0
2018-Jun-16 15:30N 40°50' E 014°15'0 0.0
2018-Jun-16 15:00N 40°50' E 014°15'0 0.0
2018-Jun-16 14:30N 40°50' E 014°15'0 0.0
2018-Jun-16 14:00N 40°50' E 014°15'0 0.0
2018-Jun-16 13:30N 40°50' E 014°15'0 0.0
2018-Jun-16 13:00N 40°50' E 014°15'0 0.0
2018-Jun-16 12:18N 40°50' E 014°15'0 0.0
2018-Jun-16 11:57N 40°50' E 014°15'0 0.0
2018-Jun-16 11:27N 40°50' E 014°15'0 0.0
2018-Jun-16 11:00N 40°50' E 014°15'0 0.0
2018-Jun-16 10:30N 40°50' E 014°15'0 0.0
2018-Jun-16 10:00N 40°50' E 014°15'0 0.0
2018-Jun-16 09:30N 40°50' E 014°15'0 0.0
2018-Jun-16 09:00N 40°50' E 014°15'0 0.0
2018-Jun-16 08:30N 40°50' E 014°15'0 0.0
2018-Jun-16 08:00N 40°50' E 014°15'0 0.0
2018-Jun-16 07:30N 40°50' E 014°15'0 0.0
2018-Jun-16 07:00N 40°50' E 014°15'2 4.0
2018-Jun-16 06:30N 40°49' E 014°17'4 7.7
2018-Jun-16 06:00N 40°47' E 014°13'4 7.7
2018-Jun-16 05:30N 40°45' E 014°09'4 7.8
2018-Jun-16 05:00N 40°43' E 014°04'4 7.7
2018-Jun-16 04:30N 40°41' E 013°60'4 7.4
2018-Jun-16 04:00N 40°40' E 013°55'4 7.5
2018-Jun-16 03:30N 40°40' E 013°50'4 7.7
2018-Jun-16 03:00N 40°42' E 013°46'4 7.7
2018-Jun-16 02:30N 40°44' E 013°41'4 7.5
2018-Jun-16 02:00N 40°46' E 013°37'5 7.4
2018-Jun-16 01:22N 40°48' E 013°32'3 7.5
2018-Jun-16 01:00N 40°49' E 013°28'4 7.4
2018-Jun-16 00:30N 40°51' E 013°24'4 7.6
2018-Jun-16 00:00N 40°52' E 013°19'10 0.5
2018-Jun-15 03:05N 40°48' E 013°31'8 6.6
2018-Jun-15 01:55N 40°45' E 013°40'3 6.5
2018-Jun-15 01:27N 40°43' E 013°44'3 6.4
2018-Jun-15 01:00N 40°42' E 013°47'3 6.1
2018-Jun-15 00:30N 40°40' E 013°51'3 6.7
2018-Jun-15 00:00N 40°40' E 013°55'3 6.8
2018-Jun-14 23:30N 40°39' E 013°60'3 6.4
2018-Jun-14 23:00N 40°41' E 014°03'3 6.7
2018-Jun-14 22:30N 40°43' E 014°07'3 6.7
2018-Jun-14 22:00N 40°45' E 014°10'3 6.8
2018-Jun-14 21:30N 40°47' E 014°14'3 6.7
2018-Jun-14 21:00N 40°50' E 014°17'1 2.0
2018-Jun-14 20:29N 40°50' E 014°15'0 0.0
2018-Jun-14 19:59N 40°50' E 014°15'0 0.0
2018-Jun-14 19:29N 40°50' E 014°15'0 0.0
2018-Jun-14 18:59N 40°50' E 014°15'0 0.0
2018-Jun-14 18:29N 40°50' E 014°15'0 0.0
2018-Jun-14 17:56N 40°50' E 014°15'0 0.0
2018-Jun-14 17:29N 40°50' E 014°15'0 0.0
2018-Jun-14 16:59N 40°50' E 014°15'0 0.0
2018-Jun-14 16:29N 40°50' E 014°15'0 0.0
2018-Jun-14 15:59N 40°50' E 014°15'0 0.0
2018-Jun-14 15:29N 40°50' E 014°15'0 0.0
2018-Jun-14 14:59N 40°50' E 014°15'0 0.0
2018-Jun-14 14:26N 40°50' E 014°15'0 0.0
2018-Jun-14 13:59N 40°50' E 014°15'0 0.0
2018-Jun-14 13:26N 40°50' E 014°15'0 0.0
2018-Jun-14 12:59N 40°50' E 014°15'0 0.0
2018-Jun-14 12:29N 40°50' E 014°15'0 0.0
2018-Jun-14 11:59N 40°50' E 014°15'0 0.0
2018-Jun-14 11:29N 40°50' E 014°15'0 0.0
2018-Jun-14 10:59N 40°50' E 014°15'0 0.0
2018-Jun-14 10:29N 40°50' E 014°15'0 0.0
2018-Jun-14 09:59N 40°50' E 014°15'0 0.0
2018-Jun-14 09:29N 40°50' E 014°15'0 0.0
2018-Jun-14 08:53N 40°50' E 014°15'0 0.0
2018-Jun-14 08:26N 40°50' E 014°15'0 0.0
2018-Jun-14 08:00N 40°50' E 014°15'0 0.0
2018-Jun-14 07:30N 40°50' E 014°15'0 0.0
2018-Jun-14 07:00N 40°50' E 014°15'0 0.0
2018-Jun-14 06:30N 40°50' E 014°15'0 0.0
2018-Jun-14 06:00N 40°50' E 014°15'0 0.0
2018-Jun-14 05:30N 40°50' E 014°15'0 0.6
2018-Jun-14 05:00N 40°50' E 014°16'2 4.2
2018-Jun-14 04:30N 40°48' E 014°16'3 6.8
2018-Jun-14 04:00N 40°46' E 014°12'3 6.9
2018-Jun-14 03:30N 40°44' E 014°09'3 6.8
2018-Jun-14 03:00N 40°42' E 014°05'3 6.8
2018-Jun-14 02:30N 40°40' E 014°01'3 6.5
2018-Jun-14 02:00N 40°39' E 013°57'4 7.1
2018-Jun-14 01:30N 40°40' E 013°53'4 7.4
2018-Jun-14 01:00N 40°41' E 013°48'4 7.5
2018-Jun-14 00:30N 40°43' E 013°44'4 7.3
2018-Jun-14 00:00N 40°45' E 013°39'4 7.3
2018-Jun-13 23:28N 40°47' E 013°35'3 7.2
2018-Jun-13 22:59N 40°48' E 013°31'8 7.4
2018-Jun-13 21:52N 40°51' E 013°21'7 0.2
2018-Jun-12 11:54N 40°49' E 013°30'3 6.5
2018-Jun-12 11:27N 40°47' E 013°33'5 3.8
2018-Jun-12 10:12N 40°45' E 013°38'1 6.5
2018-Jun-12 09:59N 40°44' E 013°40'3 6.4
2018-Jun-12 09:29N 40°43' E 013°44'5 6.5
2018-Jun-12 08:42N 40°41' E 013°50'2 7.1
2018-Jun-12 08:27N 40°41' E 013°52'3 6.9
2018-Jun-12 08:00N 40°41' E 013°56'3 6.7
2018-Jun-12 07:30N 40°42' E 014°01'4 7.1
2018-Jun-12 07:00N 40°43' E 014°05'3 6.9
2018-Jun-12 06:30N 40°45' E 014°09'3 6.8
2018-Jun-12 06:00N 40°47' E 014°13'3 6.8
2018-Jun-12 05:30N 40°49' E 014°16'2 2.9
2018-Jun-12 04:58N 40°51' E 014°16'0 0.0
2018-Jun-12 04:28N 40°51' E 014°16'0 0.0
2018-Jun-12 03:58N 40°51' E 014°16'0 0.0
2018-Jun-12 03:28N 40°51' E 014°16'0 0.0
2018-Jun-12 02:58N 40°51' E 014°16'0 0.0
2018-Jun-12 02:28N 40°51' E 014°16'0 0.0
2018-Jun-12 01:58N 40°51' E 014°16'0 0.0
2018-Jun-12 01:28N 40°51' E 014°16'0 0.0
2018-Jun-12 00:58N 40°51' E 014°16'0 0.0
2018-Jun-12 00:28N 40°51' E 014°16'0 0.0
2018-Jun-11 23:58N 40°51' E 014°16'0 0.0
2018-Jun-11 23:28N 40°51' E 014°16'0 0.0
2018-Jun-11 22:58N 40°51' E 014°16'0 0.0
2018-Jun-11 22:28N 40°51' E 014°16'0 0.0
2018-Jun-11 21:58N 40°51' E 014°16'0 0.0
2018-Jun-11 21:28N 40°51' E 014°16'0 0.0
2018-Jun-11 20:58N 40°51' E 014°16'0 0.0
2018-Jun-11 20:28N 40°51' E 014°16'0 0.0
2018-Jun-11 19:58N 40°51' E 014°16'0 0.0
2018-Jun-11 19:28N 40°51' E 014°16'0 0.0
2018-Jun-11 18:55N 40°51' E 014°16'0 0.5
2018-Jun-11 18:30N 40°50' E 014°16'1 3.0
2018-Jun-11 18:00N 40°50' E 014°18'2 3.1
2018-Jun-11 17:30N 40°48' E 014°17'4 7.3
2018-Jun-11 17:00N 40°46' E 014°13'  
Track history (hours):
 
Tides and Currents Weather Stations Pressure Air Temp Water Temp Dewpoint Dewpoint Depression Visibility Wind Speed Wind Dir Waves Ship Positions

Rosanna A

Last reported at 2018-Jun-21 16:45 UTC. Time now 2018-Jun-22 13:21 UTC.
Position N 41°13' E 013°34'.

Length 63 m; draft 4.8 m.

Type: Ship. MMSI: 247508000.

Date/timePositionNaut miles runAvg speedWind from/ knotsBaromVisibWave heightAir tempDewpointWater temp
2018-Jun-21 16:45N 41°13' E 013°34'0 0.0
2018-Jun-21 12:48N 41°13' E 013°34'0 0.0
2018-Jun-21 12:09N 41°13' E 013°34'0 0.0
2018-Jun-21 11:57N 41°13' E 013°34'0 0.0
2018-Jun-21 11:30N 41°13' E 013°34'0 0.0
2018-Jun-21 10:57N 41°13' E 013°34'0 0.0
2018-Jun-21 10:30N 41°13' E 013°34'0 0.0
2018-Jun-21 09:57N 41°13' E 013°34'0 0.0
2018-Jun-21 01:15N 41°13' E 013°34'0 0.0
2018-Jun-20 15:27N 41°13' E 013°34'0 0.0
2018-Jun-20 15:00N 41°13' E 013°34'0 0.0
2018-Jun-20 14:27N 41°13' E 013°34'0 0.1
2018-Jun-20 06:24N 41°14' E 013°35'30 1.0
2018-Jun-19 00:30N 40°45' E 013°42'3 6.7
2018-Jun-19 00:00N 40°43' E 013°45'3 6.5
2018-Jun-18 23:30N 40°41' E 013°49'3 6.5
2018-Jun-18 23:00N 40°40' E 013°53'3 6.7
2018-Jun-18 22:30N 40°39' E 013°57'3 6.9
2018-Jun-18 22:00N 40°40' E 014°01'3 6.4
2018-Jun-18 21:30N 40°42' E 014°05'3 6.1
2018-Jun-18 21:00N 40°44' E 014°08'3 6.3
2018-Jun-18 20:30N 40°46' E 014°11'3 6.0
2018-Jun-18 20:00N 40°48' E 014°15'3 5.5
2018-Jun-18 19:30N 40°50' E 014°16'0 0.8
2018-Jun-18 18:58N 40°51' E 014°16'0 0.0
2018-Jun-18 18:28N 40°51' E 014°16'0 0.0
2018-Jun-18 17:58N 40°51' E 014°16'0 0.0
2018-Jun-18 17:25N 40°51' E 014°16'0 0.0
2018-Jun-18 16:58N 40°51' E 014°16'0 0.0
2018-Jun-18 16:28N 40°51' E 014°16'0 0.0
2018-Jun-18 15:58N 40°51' E 014°16'0 0.0
2018-Jun-18 15:28N 40°51' E 014°16'0 0.0
2018-Jun-18 14:58N 40°51' E 014°16'0 0.0
2018-Jun-18 14:28N 40°51' E 014°16'0 0.0
2018-Jun-18 13:58N 40°51' E 014°16'0 0.0
2018-Jun-18 13:25N 40°51' E 014°16'0 0.0
2018-Jun-18 12:58N 40°51' E 014°16'0 0.0
2018-Jun-18 12:22N 40°51' E 014°16'0 0.0
2018-Jun-18 11:58N 40°51' E 014°16'0 0.0
2018-Jun-18 11:25N 40°51' E 014°16'0 0.0
2018-Jun-18 10:58N 40°51' E 014°16'0 0.0
2018-Jun-18 10:28N 40°51' E 014°16'0 0.0
2018-Jun-18 09:58N 40°51' E 014°16'0 0.0
2018-Jun-18 09:28N 40°51' E 014°16'0 0.0
2018-Jun-18 08:58N 40°51' E 014°16'0 0.0
2018-Jun-18 08:28N 40°51' E 014°16'0 0.0
2018-Jun-18 07:58N 40°51' E 014°16'0 0.0
2018-Jun-18 07:28N 40°51' E 014°16'0 0.0
2018-Jun-18 06:58N 40°51' E 014°16'0 0.0
2018-Jun-18 06:28N 40°51' E 014°16'0 0.0
2018-Jun-18 06:00N 40°51' E 014°16'2 4.2
2018-Jun-18 05:30N 40°49' E 014°17'4 7.5
2018-Jun-18 05:00N 40°46' E 014°13'4 7.6
2018-Jun-18 04:30N 40°44' E 014°09'4 7.8
2018-Jun-18 04:00N 40°42' E 014°05'4 7.9
2018-Jun-18 03:30N 40°40' E 014°01'3 6.9
2018-Jun-18 03:00N 40°39' E 013°56'4 7.2
2018-Jun-18 02:30N 40°40' E 013°52'4 7.6
2018-Jun-18 02:00N 40°42' E 013°47'4 7.8
2018-Jun-18 01:29N 40°44' E 013°42'4 7.7
2018-Jun-18 01:00N 40°45' E 013°38'4 7.7
2018-Jun-18 00:30N 40°47' E 013°33'4 7.7
2018-Jun-17 23:55N 40°49' E 013°28'15 7.7
2018-Jun-17 21:56N 40°53' E 013°08'12 0.6
2018-Jun-17 02:31N 40°51' E 013°24'2 6.6
2018-Jun-17 02:16N 40°50' E 013°26'10 6.6
2018-Jun-17 00:46N 40°46' E 013°38'3 6.5
2018-Jun-17 00:14N 40°45' E 013°42'2 6.6
2018-Jun-16 23:59N 40°44' E 013°44'3 6.3
2018-Jun-16 23:29N 40°42' E 013°47'3 6.1
2018-Jun-16 23:00N 40°40' E 013°50'3 5.9
2018-Jun-16 22:30N 40°39' E 013°54'3 6.8
2018-Jun-16 22:00N 40°39' E 013°59'3 6.8
2018-Jun-16 21:30N 40°41' E 014°03'3 6.9
2018-Jun-16 21:00N 40°43' E 014°07'3 6.8
2018-Jun-16 20:30N 40°44' E 014°10'3 6.7
2018-Jun-16 20:00N 40°47' E 014°13'3 6.6
2018-Jun-16 19:30N 40°49' E 014°16'1 2.2
2018-Jun-16 19:00N 40°50' E 014°15'0 0.0
2018-Jun-16 18:30N 40°50' E 014°15'0 0.0
2018-Jun-16 18:00N 40°50' E 014°15'0 0.0
2018-Jun-16 17:30N 40°50' E 014°15'0 0.0
2018-Jun-16 17:00N 40°50' E 014°15'0 0.0
2018-Jun-16 16:30N 40°50' E 014°15'0 0.0
2018-Jun-16 16:00N 40°50' E 014°15'0 0.0
2018-Jun-16 15:30N 40°50' E 014°15'0 0.0
2018-Jun-16 15:00N 40°50' E 014°15'0 0.0
2018-Jun-16 14:30N 40°50' E 014°15'0 0.0
2018-Jun-16 14:00N 40°50' E 014°15'0 0.0
2018-Jun-16 13:30N 40°50' E 014°15'0 0.0
2018-Jun-16 13:00N 40°50' E 014°15'0 0.0
2018-Jun-16 12:18N 40°50' E 014°15'0 0.0
2018-Jun-16 11:57N 40°50' E 014°15'0 0.0
2018-Jun-16 11:27N 40°50' E 014°15'0 0.0
2018-Jun-16 11:00N 40°50' E 014°15'0 0.0
2018-Jun-16 10:30N 40°50' E 014°15'0 0.0
2018-Jun-16 10:00N 40°50' E 014°15'0 0.0
2018-Jun-16 09:30N 40°50' E 014°15'0 0.0
2018-Jun-16 09:00N 40°50' E 014°15'0 0.0
2018-Jun-16 08:30N 40°50' E 014°15'0 0.0
2018-Jun-16 08:00N 40°50' E 014°15'0 0.0
2018-Jun-16 07:30N 40°50' E 014°15'0 0.0
2018-Jun-16 07:00N 40°50' E 014°15'2 4.0
2018-Jun-16 06:30N 40°49' E 014°17'4 7.7
2018-Jun-16 06:00N 40°47' E 014°13'4 7.7
2018-Jun-16 05:30N 40°45' E 014°09'4 7.8
2018-Jun-16 05:00N 40°43' E 014°04'4 7.7
2018-Jun-16 04:30N 40°41' E 013°60'4 7.4
2018-Jun-16 04:00N 40°40' E 013°55'4 7.5
2018-Jun-16 03:30N 40°40' E 013°50'4 7.7
2018-Jun-16 03:00N 40°42' E 013°46'4 7.7
2018-Jun-16 02:30N 40°44' E 013°41'4 7.5
2018-Jun-16 02:00N 40°46' E 013°37'5 7.4
2018-Jun-16 01:22N 40°48' E 013°32'3 7.5
2018-Jun-16 01:00N 40°49' E 013°28'4 7.4
2018-Jun-16 00:30N 40°51' E 013°24'4 7.6
2018-Jun-16 00:00N 40°52' E 013°19'10 0.5
2018-Jun-15 03:05N 40°48' E 013°31'8 6.6
2018-Jun-15 01:55N 40°45' E 013°40'3 6.5
2018-Jun-15 01:27N 40°43' E 013°44'3 6.4
2018-Jun-15 01:00N 40°42' E 013°47'3 6.1
2018-Jun-15 00:30N 40°40' E 013°51'3 6.7
2018-Jun-15 00:00N 40°40' E 013°55'3 6.8
2018-Jun-14 23:30N 40°39' E 013°60'3 6.4
2018-Jun-14 23:00N 40°41' E 014°03'3 6.7
2018-Jun-14 22:30N 40°43' E 014°07'3 6.7
2018-Jun-14 22:00N 40°45' E 014°10'3 6.8
2018-Jun-14 21:30N 40°47' E 014°14'3 6.7
2018-Jun-14 21:00N 40°50' E 014°17'1 2.0
2018-Jun-14 20:29N 40°50' E 014°15'0 0.0
2018-Jun-14 19:59N 40°50' E 014°15'0 0.0
2018-Jun-14 19:29N 40°50' E 014°15'0 0.0
2018-Jun-14 18:59N 40°50' E 014°15'0 0.0
2018-Jun-14 18:29N 40°50' E 014°15'0 0.0
2018-Jun-14 17:56N 40°50' E 014°15'0 0.0
2018-Jun-14 17:29N 40°50' E 014°15'0 0.0
2018-Jun-14 16:59N 40°50' E 014°15'0 0.0
2018-Jun-14 16:29N 40°50' E 014°15'0 0.0
2018-Jun-14 15:59N 40°50' E 014°15'0 0.0
2018-Jun-14 15:29N 40°50' E 014°15'0 0.0
2018-Jun-14 14:59N 40°50' E 014°15'0 0.0
2018-Jun-14 14:26N 40°50' E 014°15'0 0.0
2018-Jun-14 13:59N 40°50' E 014°15'0 0.0
2018-Jun-14 13:26N 40°50' E 014°15'0 0.0
2018-Jun-14 12:59N 40°50' E 014°15'0 0.0
2018-Jun-14 12:29N 40°50' E 014°15'0 0.0
2018-Jun-14 11:59N 40°50' E 014°15'0 0.0
2018-Jun-14 11:29N 40°50' E 014°15'0 0.0
2018-Jun-14 10:59N 40°50' E 014°15'0 0.0
2018-Jun-14 10:29N 40°50' E 014°15'0 0.0
2018-Jun-14 09:59N 40°50' E 014°15'0 0.0
2018-Jun-14 09:29N 40°50' E 014°15'0 0.0
2018-Jun-14 08:53N 40°50' E 014°15'0 0.0
2018-Jun-14 08:26N 40°50' E 014°15'0 0.0
2018-Jun-14 08:00N 40°50' E 014°15'0 0.0
2018-Jun-14 07:30N 40°50' E 014°15'0 0.0
2018-Jun-14 07:00N 40°50' E 014°15'0 0.0
2018-Jun-14 06:30N 40°50' E 014°15'0 0.0
2018-Jun-14 06:00N 40°50' E 014°15'0 0.0
2018-Jun-14 05:30N 40°50' E 014°15'0 0.6
2018-Jun-14 05:00N 40°50' E 014°16'2 4.2
2018-Jun-14 04:30N 40°48' E 014°16'3 6.8
2018-Jun-14 04:00N 40°46' E 014°12'3 6.9
2018-Jun-14 03:30N 40°44' E 014°09'3 6.8
2018-Jun-14 03:00N 40°42' E 014°05'3 6.8
2018-Jun-14 02:30N 40°40' E 014°01'3 6.5
2018-Jun-14 02:00N 40°39' E 013°57'4 7.1
2018-Jun-14 01:30N 40°40' E 013°53'4 7.4
2018-Jun-14 01:00N 40°41' E 013°48'4 7.5
2018-Jun-14 00:30N 40°43' E 013°44'4 7.3
2018-Jun-14 00:00N 40°45' E 013°39'4 7.3
2018-Jun-13 23:28N 40°47' E 013°35'3 7.2
2018-Jun-13 22:59N 40°48' E 013°31'8 7.4
2018-Jun-13 21:52N 40°51' E 013°21'7 0.2
2018-Jun-12 11:54N 40°49' E 013°30'3 6.5
2018-Jun-12 11:27N 40°47' E 013°33'5 3.8
2018-Jun-12 10:12N 40°45' E 013°38'1 6.5
2018-Jun-12 09:59N 40°44' E 013°40'3 6.4
2018-Jun-12 09:29N 40°43' E 013°44'5 6.5
2018-Jun-12 08:42N 40°41' E 013°50'2 7.1
2018-Jun-12 08:27N 40°41' E 013°52'3 6.9
2018-Jun-12 08:00N 40°41' E 013°56'3 6.7
2018-Jun-12 07:30N 40°42' E 014°01'4 7.1
2018-Jun-12 07:00N 40°43' E 014°05'3 6.9
2018-Jun-12 06:30N 40°45' E 014°09'3 6.8
2018-Jun-12 06:00N 40°47' E 014°13'3 6.8
2018-Jun-12 05:30N 40°49' E 014°16'2 2.9
2018-Jun-12 04:58N 40°51' E 014°16'0 0.0
2018-Jun-12 04:28N 40°51' E 014°16'0 0.0
2018-Jun-12 03:58N 40°51' E 014°16'0 0.0
2018-Jun-12 03:28N 40°51' E 014°16'0 0.0
2018-Jun-12 02:58N 40°51' E 014°16'0 0.0
2018-Jun-12 02:28N 40°51' E 014°16'0 0.0
2018-Jun-12 01:58N 40°51' E 014°16'0 0.0
2018-Jun-12 01:28N 40°51' E 014°16'0 0.0
2018-Jun-12 00:58N 40°51' E 014°16'0 0.0
2018-Jun-12 00:28N 40°51' E 014°16'0 0.0
2018-Jun-11 23:58N 40°51' E 014°16'0 0.0
2018-Jun-11 23:28N 40°51' E 014°16'0 0.0
2018-Jun-11 22:58N 40°51' E 014°16'0 0.0
2018-Jun-11 22:28N 40°51' E 014°16'0 0.0
2018-Jun-11 21:58N 40°51' E 014°16'0 0.0
2018-Jun-11 21:28N 40°51' E 014°16'0 0.0
2018-Jun-11 20:58N 40°51' E 014°16'0 0.0
2018-Jun-11 20:28N 40°51' E 014°16'0 0.0
2018-Jun-11 19:58N 40°51' E 014°16'0 0.0
2018-Jun-11 19:28N 40°51' E 014°16'0 0.0
2018-Jun-11 18:55N 40°51' E 014°16'0 0.5
2018-Jun-11 18:30N 40°50' E 014°16'1 3.0
2018-Jun-11 18:00N 40°50' E 014°18'2 3.1
2018-Jun-11 17:30N 40°48' E 014°17'4 7.3
2018-Jun-11 17:00N 40°46' E 014°13'  

Dump ship's entire track history